sensor_id;sensor_type;location;lat;lon;timestamp;pressure;altitude;pressure_sealevel;temperature;humidity
46392;BME280;32098;49.448;7.904;2024-01-15T00:02:02;97233.88;;;-1.81;76.35
46392;BME280;32098;49.448;7.904;2024-01-15T00:04:29;97226.19;;;-1.82;76.97
46392;BME280;32098;49.448;7.904;2024-01-15T00:06:56;97233.56;;;-1.78;76.28
46392;BME280;32098;49.448;7.904;2024-01-15T00:09:23;97231.91;;;-1.79;76.65
46392;BME280;32098;49.448;7.904;2024-01-15T00:11:49;97227.03;;;-1.74;76.31
46392;BME280;32098;49.448;7.904;2024-01-15T00:14:16;97213.38;;;-1.68;75.98
46392;BME280;32098;49.448;7.904;2024-01-15T00:16:47;97205.25;;;-1.73;75.95
46392;BME280;32098;49.448;7.904;2024-01-15T00:19:15;97208.81;;;-1.74;76.44
46392;BME280;32098;49.448;7.904;2024-01-15T00:21:43;97200.00;;;-1.81;76.65
46392;BME280;32098;49.448;7.904;2024-01-15T00:24:09;97192.38;;;-1.74;76.28
46392;BME280;32098;49.448;7.904;2024-01-15T00:26:36;97188.16;;;-1.75;76.56
46392;BME280;32098;49.448;7.904;2024-01-15T00:29:03;97192.72;;;-1.69;75.99
46392;BME280;32098;49.448;7.904;2024-01-15T00:31:30;97184.25;;;-1.71;76.34
46392;BME280;32098;49.448;7.904;2024-01-15T00:33:56;97188.78;;;-1.65;76.17
46392;BME280;32098;49.448;7.904;2024-01-15T00:36:24;97187.19;;;-1.66;76.60
46392;BME280;32098;49.448;7.904;2024-01-15T00:38:51;97177.72;;;-1.67;76.54
46392;BME280;32098;49.448;7.904;2024-01-15T00:41:18;97180.19;;;-1.66;76.15
46392;BME280;32098;49.448;7.904;2024-01-15T00:43:45;97172.53;;;-1.67;75.74
46392;BME280;32098;49.448;7.904;2024-01-15T00:46:12;97161.59;;;-1.79;76.04
46392;BME280;32098;49.448;7.904;2024-01-15T00:48:39;97172.53;;;-1.67;76.66
46392;BME280;32098;49.448;7.904;2024-01-15T00:51:05;97168.44;;;-1.70;76.53
46392;BME280;32098;49.448;7.904;2024-01-15T00:53:32;97171.91;;;-1.61;75.88
46392;BME280;32098;49.448;7.904;2024-01-15T00:55:59;97176.44;;;-1.71;76.53
46392;BME280;32098;49.448;7.904;2024-01-15T00:58:26;97168.13;;;-1.67;76.81
46392;BME280;32098;49.448;7.904;2024-01-15T01:00:53;97169.78;;;-1.66;76.14
46392;BME280;32098;49.448;7.904;2024-01-15T01:03:20;97172.22;;;-1.64;76.42
46392;BME280;32098;49.448;7.904;2024-01-15T01:05:49;97169.59;;;-1.72;77.00
46392;BME280;32098;49.448;7.904;2024-01-15T01:08:16;97160.81;;;-1.71;76.94
46392;BME280;32098;49.448;7.904;2024-01-15T01:10:43;97156.56;;;-1.72;77.00
46392;BME280;32098;49.448;7.904;2024-01-15T01:13:10;97158.69;;;-1.76;77.44
46392;BME280;32098;49.448;7.904;2024-01-15T01:15:36;97159.50;;;-1.75;77.35
46392;BME280;32098;49.448;7.904;2024-01-15T01:18:04;97153.47;;;-1.84;77.54
46392;BME280;32098;49.448;7.904;2024-01-15T01:20:31;97162.44;;;-1.78;78.05
46392;BME280;32098;49.448;7.904;2024-01-15T01:22:58;97158.16;;;-1.87;78.54
46392;BME280;32098;49.448;7.904;2024-01-15T01:25:24;97169.25;;;-1.85;78.66
46392;BME280;32098;49.448;7.904;2024-01-15T01:27:51;97152.63;;;-1.92;78.51
46392;BME280;32098;49.448;7.904;2024-01-15T01:30:17;97166.94;;;-1.97;78.90
46392;BME280;32098;49.448;7.904;2024-01-15T01:32:44;97168.53;;;-2.04;79.38
46392;BME280;32098;49.448;7.904;2024-01-15T01:35:12;97153.38;;;-2.16;79.67
46392;BME280;32098;49.448;7.904;2024-01-15T01:37:39;97164.59;;;-2.08;79.97
46392;BME280;32098;49.448;7.904;2024-01-15T01:40:06;97162.34;;;-2.03;80.08
46392;BME280;32098;49.448;7.904;2024-01-15T01:42:32;97157.47;;;-1.98;79.43
46392;BME280;32098;49.448;7.904;2024-01-15T01:44:59;97166.91;;;-2.05;80.06
46392;BME280;32098;49.448;7.904;2024-01-15T01:47:26;97156.00;;;-2.00;80.30
46392;BME280;32098;49.448;7.904;2024-01-15T01:49:53;97152.28;;;-2.06;80.13
46392;BME280;32098;49.448;7.904;2024-01-15T01:52:20;97152.44;;;-1.99;79.94
46392;BME280;32098;49.448;7.904;2024-01-15T01:54:47;97168.22;;;-2.01;80.97
46392;BME280;32098;49.448;7.904;2024-01-15T01:57:15;97160.28;;;-1.91;80.28
46392;BME280;32098;49.448;7.904;2024-01-15T01:59:41;97152.28;;;-1.98;80.31
46392;BME280;32098;49.448;7.904;2024-01-15T02:02:08;97152.13;;;-1.96;80.85
46392;BME280;32098;49.448;7.904;2024-01-15T02:04:35;97156.34;;;-1.95;80.38
46392;BME280;32098;49.448;7.904;2024-01-15T02:07:03;97152.13;;;-1.96;81.00
46392;BME280;32098;49.448;7.904;2024-01-15T02:09:30;97149.56;;;-1.88;80.95
46392;BME280;32098;49.448;7.904;2024-01-15T02:11:58;97158.50;;;-1.82;80.60
46392;BME280;32098;49.448;7.904;2024-01-15T02:14:25;97146.81;;;-1.78;79.84
46392;BME280;32098;49.448;7.904;2024-01-15T02:16:52;97152.31;;;-1.81;80.61
46392;BME280;32098;49.448;7.904;2024-01-15T02:19:19;97142.06;;;-1.75;80.06
46392;BME280;32098;49.448;7.904;2024-01-15T02:21:45;97142.91;;;-1.74;80.11
46392;BME280;32098;49.448;7.904;2024-01-15T02:24:12;97125.31;;;-1.80;80.43
46392;BME280;32098;49.448;7.904;2024-01-15T02:26:39;97130.19;;;-1.93;80.60
46392;BME280;32098;49.448;7.904;2024-01-15T02:29:10;97124.00;;;-1.84;81.16
46392;BME280;32098;49.448;7.904;2024-01-15T02:31:36;97129.06;;;-1.75;80.67
46392;BME280;32098;49.448;7.904;2024-01-15T02:34:04;97123.00;;;-1.91;80.99
46392;BME280;32098;49.448;7.904;2024-01-15T02:36:31;97120.75;;;-1.86;81.53
46392;BME280;32098;49.448;7.904;2024-01-15T02:38:57;97127.91;;;-1.88;81.79
46392;BME280;32098;49.448;7.904;2024-01-15T02:41:24;97130.34;;;-1.87;81.84
46392;BME280;32098;49.448;7.904;2024-01-15T02:43:51;97135.41;;;-1.77;81.43
46392;BME280;32098;49.448;7.904;2024-01-15T02:46:17;97115.84;;;-1.89;81.85
46392;BME280;32098;49.448;7.904;2024-01-15T02:48:44;97115.22;;;-1.83;81.75
46392;BME280;32098;49.448;7.904;2024-01-15T02:51:11;97110.97;;;-1.84;82.10
46392;BME280;32098;49.448;7.904;2024-01-15T02:53:38;97116.38;;;-1.86;82.80
46392;BME280;32098;49.448;7.904;2024-01-15T02:56:07;97121.06;;;-1.89;82.44
46392;BME280;32098;49.448;7.904;2024-01-15T02:58:34;97114.69;;;-1.95;82.65
46392;BME280;32098;49.448;7.904;2024-01-15T03:01:00;97122.88;;;-1.82;82.35
46392;BME280;32098;49.448;7.904;2024-01-15T03:03:28;97115.03;;;-1.90;82.60
46392;BME280;32098;49.448;7.904;2024-01-15T03:05:55;97107.72;;;-1.95;82.95
46392;BME280;32098;49.448;7.904;2024-01-15T03:08:22;97101.50;;;-2.10;83.55
46392;BME280;32098;49.448;7.904;2024-01-15T03:10:49;97082.28;;;-2.17;83.68
46392;BME280;32098;49.448;7.904;2024-01-15T03:13:16;97070.38;;;-2.27;84.52
46392;BME280;32098;49.448;7.904;2024-01-15T03:15:43;97077.06;;;-2.25;84.53
46392;BME280;32098;49.448;7.904;2024-01-15T03:18:10;97100.81;;;-2.20;84.62
46392;BME280;32098;49.448;7.904;2024-01-15T03:20:37;97106.56;;;-2.08;84.18
46392;BME280;32098;49.448;7.904;2024-01-15T03:23:03;97096.63;;;-2.05;83.96
46392;BME280;32098;49.448;7.904;2024-01-15T03:25:30;97107.34;;;-2.08;84.31
46392;BME280;32098;49.448;7.904;2024-01-15T03:27:57;97097.28;;;-2.03;84.13
46392;BME280;32098;49.448;7.904;2024-01-15T03:30:23;97107.72;;;-1.95;84.10
46392;BME280;32098;49.448;7.904;2024-01-15T03:32:50;97112.94;;;-1.86;83.59
46392;BME280;32098;49.448;7.904;2024-01-15T03:35:17;97116.72;;;-1.73;83.84
46392;BME280;32098;49.448;7.904;2024-01-15T03:37:43;97117.19;;;-1.69;83.20
46392;BME280;32098;49.448;7.904;2024-01-15T03:40:10;97114.94;;;-1.56;83.03
46392;BME280;32098;49.448;7.904;2024-01-15T03:42:37;97111.00;;;-1.60;82.13
46392;BME280;32098;49.448;7.904;2024-01-15T03:45:04;97104.00;;;-1.52;82.02
46392;BME280;32098;49.448;7.904;2024-01-15T03:47:31;97086.59;;;-1.51;82.03
46392;BME280;32098;49.448;7.904;2024-01-15T03:49:58;97086.59;;;-1.59;82.16
46392;BME280;32098;49.448;7.904;2024-01-15T03:52:24;97082.03;;;-1.57;82.39
46392;BME280;32098;49.448;7.904;2024-01-15T03:54:51;97081.72;;;-1.46;82.63
46392;BME280;32098;49.448;7.904;2024-01-15T03:57:18;97083.00;;;-1.42;82.22
46392;BME280;32098;49.448;7.904;2024-01-15T03:59:44;97090.19;;;-1.36;81.75
46392;BME280;32098;49.448;7.904;2024-01-15T04:02:13;97099.59;;;-1.35;81.96
46392;BME280;32098;49.448;7.904;2024-01-15T04:04:42;97089.03;;;-1.34;81.31
46392;BME280;32098;49.448;7.904;2024-01-15T04:07:09;97081.69;;;-1.30;81.67
46392;BME280;32098;49.448;7.904;2024-01-15T04:09:36;97070.63;;;-1.24;81.54
46392;BME280;32098;49.448;7.904;2024-01-15T04:12:03;97081.22;;;-1.25;81.33
46392;BME280;32098;49.448;7.904;2024-01-15T04:14:29;97082.31;;;-1.20;81.34
46392;BME280;32098;49.448;7.904;2024-01-15T04:16:56;97086.25;;;-1.16;81.29
46392;BME280;32098;49.448;7.904;2024-01-15T04:19:23;97066.69;;;-1.12;80.95
46392;BME280;32098;49.448;7.904;2024-01-15T04:21:49;97074.81;;;-1.15;81.07
46392;BME280;32098;49.448;7.904;2024-01-15T04:24:16;97071.91;;;-1.12;80.35
46392;BME280;32098;49.448;7.904;2024-01-15T04:26:45;97064.91;;;-1.11;80.76
46392;BME280;32098;49.448;7.904;2024-01-15T04:29:11;97059.19;;;-1.15;80.31
46392;BME280;32098;49.448;7.904;2024-01-15T04:31:38;97055.13;;;-1.17;80.86
46392;BME280;32098;49.448;7.904;2024-01-15T04:34:05;97050.91;;;-1.10;80.56
46392;BME280;32098;49.448;7.904;2024-01-15T04:36:38;97049.44;;;-1.21;80.51
46392;BME280;32098;49.448;7.904;2024-01-15T04:39:05;97042.78;;;-1.23;80.42
46392;BME280;32098;49.448;7.904;2024-01-15T04:41:32;97047.16;;;-1.16;80.61
46392;BME280;32098;49.448;7.904;2024-01-15T04:43:59;97036.72;;;-1.08;80.66
46392;BME280;32098;49.448;7.904;2024-01-15T04:46:27;97051.84;;;-1.03;80.73
46392;BME280;32098;49.448;7.904;2024-01-15T04:48:54;97052.31;;;-1.00;80.19
46392;BME280;32098;49.448;7.904;2024-01-15T04:51:21;97052.31;;;-1.00;80.33
46392;BME280;32098;49.448;7.904;2024-01-15T04:53:47;97042.38;;;-0.96;80.52
46392;BME280;32098;49.448;7.904;2024-01-15T04:56:14;97044.00;;;-0.95;80.37
46392;BME280;32098;49.448;7.904;2024-01-15T04:58:40;97040.28;;;-1.01;79.88
46392;BME280;32098;49.448;7.904;2024-01-15T05:01:08;97032.44;;;-0.93;80.69
46392;BME280;32098;49.448;7.904;2024-01-15T05:03:35;97036.66;;;-0.92;80.03
46392;BME280;32098;49.448;7.904;2024-01-15T05:06:02;97052.94;;;-0.90;80.49
46392;BME280;32098;49.448;7.904;2024-01-15T05:08:30;97052.16;;;-0.90;80.07
46392;BME280;32098;49.448;7.904;2024-01-15T05:10:56;97052.94;;;-0.90;80.70
46392;BME280;32098;49.448;7.904;2024-01-15T05:13:23;97046.94;;;-0.90;80.85
46392;BME280;32098;49.448;7.904;2024-01-15T05:15:49;97038.44;;;-0.92;81.15
46392;BME280;32098;49.448;7.904;2024-01-15T05:18:16;97034.53;;;-0.88;80.89
46392;BME280;32098;49.448;7.904;2024-01-15T05:20:43;97046.25;;;-0.84;81.16
46392;BME280;32098;49.448;7.904;2024-01-15T05:23:10;97043.13;;;-0.80;81.19
46392;BME280;32098;49.448;7.904;2024-01-15T05:25:37;97038.22;;;-0.83;80.46
46392;BME280;32098;49.448;7.904;2024-01-15T05:28:05;97022.00;;;-0.93;80.75
46392;BME280;32098;49.448;7.904;2024-01-15T05:30:31;97016.78;;;-0.93;81.67
46392;BME280;32098;49.448;7.904;2024-01-15T05:32:58;97025.91;;;-0.97;81.94
46392;BME280;32098;49.448;7.904;2024-01-15T05:35:27;97008.38;;;-1.11;81.95
46392;BME280;32098;49.448;7.904;2024-01-15T05:37:53;97003.16;;;-1.11;82.16
46392;BME280;32098;49.448;7.904;2024-01-15T05:40:20;97000.03;;;-1.06;82.67
46392;BME280;32098;49.448;7.904;2024-01-15T05:42:47;97004.94;;;-1.11;82.69
46392;BME280;32098;49.448;7.904;2024-01-15T05:45:14;97007.69;;;-1.05;83.14
46392;BME280;32098;49.448;7.904;2024-01-15T05:47:41;97005.91;;;-1.04;83.26
46392;BME280;32098;49.448;7.904;2024-01-15T05:50:08;97017.16;;;-1.12;83.36
46392;BME280;32098;49.448;7.904;2024-01-15T05:52:36;97000.84;;;-1.06;83.79
46392;BME280;32098;49.448;7.904;2024-01-15T05:55:03;97001.81;;;-0.99;83.92
46392;BME280;32098;49.448;7.904;2024-01-15T05:57:29;96992.34;;;-1.00;83.81
46392;BME280;32098;49.448;7.904;2024-01-15T05:59:56;96993.19;;;-1.07;83.31
46392;BME280;32098;49.448;7.904;2024-01-15T06:02:23;96988.78;;;-1.07;84.13
46392;BME280;32098;49.448;7.904;2024-01-15T06:04:49;96982.59;;;-0.98;84.11
46392;BME280;32098;49.448;7.904;2024-01-15T06:07:16;96989.59;;;-0.98;83.80
46392;BME280;32098;49.448;7.904;2024-01-15T06:09:43;96990.72;;;-0.93;84.38
46392;BME280;32098;49.448;7.904;2024-01-15T06:12:09;96987.44;;;-0.95;83.59
46392;BME280;32098;49.448;7.904;2024-01-15T06:14:36;96992.66;;;-0.95;83.86
46392;BME280;32098;49.448;7.904;2024-01-15T06:17:03;96990.53;;;-0.91;83.91
46392;BME280;32098;49.448;7.904;2024-01-15T06:19:29;96978.31;;;-0.91;84.09
46392;BME280;32098;49.448;7.904;2024-01-15T06:21:56;96980.94;;;-0.91;84.17
46392;BME280;32098;49.448;7.904;2024-01-15T06:24:23;96978.78;;;-0.87;84.62
46392;BME280;32098;49.448;7.904;2024-01-15T06:26:50;96977.28;;;-0.82;84.53
46392;BME280;32098;49.448;7.904;2024-01-15T06:29:17;96989.00;;;-0.78;84.35
46392;BME280;32098;49.448;7.904;2024-01-15T06:31:43;96987.38;;;-0.79;84.38
46392;BME280;32098;49.448;7.904;2024-01-15T06:34:10;96989.19;;;-0.79;84.65
46392;BME280;32098;49.448;7.904;2024-01-15T06:36:37;96993.88;;;-0.75;83.94
46392;BME280;32098;49.448;7.904;2024-01-15T06:39:04;96996.78;;;-0.70;84.04
46392;BME280;32098;49.448;7.904;2024-01-15T06:41:31;96993.53;;;-0.72;84.24
46392;BME280;32098;49.448;7.904;2024-01-15T06:43:58;96995.19;;;-0.71;83.91
46392;BME280;32098;49.448;7.904;2024-01-15T06:46:25;96993.34;;;-0.70;84.13
46392;BME280;32098;49.448;7.904;2024-01-15T06:48:51;96998.25;;;-0.67;83.58
46392;BME280;32098;49.448;7.904;2024-01-15T06:51:18;96998.41;;;-0.69;83.95
46392;BME280;32098;49.448;7.904;2024-01-15T06:53:45;97000.69;;;-0.66;84.09
46392;BME280;32098;49.448;7.904;2024-01-15T06:56:12;96997.47;;;-0.76;84.03
46392;BME280;32098;49.448;7.904;2024-01-15T06:58:38;97004.28;;;-0.67;83.86
46392;BME280;32098;49.448;7.904;2024-01-15T07:01:06;96999.25;;;-0.68;84.52
46392;BME280;32098;49.448;7.904;2024-01-15T07:03:34;97000.03;;;-0.68;83.87
46392;BME280;32098;49.448;7.904;2024-01-15T07:06:01;96997.59;;;-0.69;84.22
46392;BME280;32098;49.448;7.904;2024-01-15T07:08:28;96982.28;;;-0.72;84.26
46392;BME280;32098;49.448;7.904;2024-01-15T07:10:54;97000.34;;;-0.63;84.42
46392;BME280;32098;49.448;7.904;2024-01-15T07:13:21;97003.44;;;-0.59;83.90
46392;BME280;32098;49.448;7.904;2024-01-15T07:15:48;96986.91;;;-0.51;84.42
46392;BME280;32098;49.448;7.904;2024-01-15T07:18:16;96990.47;;;-0.44;84.08
46392;BME280;32098;49.448;7.904;2024-01-15T07:20:43;96980.53;;;-0.49;83.40
46392;BME280;32098;49.448;7.904;2024-01-15T07:23:09;96992.91;;;-0.43;83.58
46392;BME280;32098;49.448;7.904;2024-01-15T07:25:36;96995.69;;;-0.44;83.66
46392;BME280;32098;49.448;7.904;2024-01-15T07:28:03;96993.56;;;-0.41;83.20
46392;BME280;32098;49.448;7.904;2024-01-15T07:30:30;96994.84;;;-0.45;83.71
46392;BME280;32098;49.448;7.904;2024-01-15T07:32:57;96989.78;;;-0.38;83.36
46392;BME280;32098;49.448;7.904;2024-01-15T07:35:24;96991.75;;;-0.40;83.00
46392;BME280;32098;49.448;7.904;2024-01-15T07:37:51;96986.03;;;-0.36;83.01
46392;BME280;32098;49.448;7.904;2024-01-15T07:40:17;96979.00;;;-0.35;83.42
46392;BME280;32098;49.448;7.904;2024-01-15T07:42:44;96987.47;;;-0.33;83.60
46392;BME280;32098;49.448;7.904;2024-01-15T07:45:11;96986.75;;;-0.27;83.90
46392;BME280;32098;49.448;7.904;2024-01-15T07:47:37;96984.16;;;-0.27;83.39
46392;BME280;32098;49.448;7.904;2024-01-15T07:50:05;96986.13;;;-0.29;83.03
46392;BME280;32098;49.448;7.904;2024-01-15T07:52:33;96977.63;;;-0.23;83.95
46392;BME280;32098;49.448;7.904;2024-01-15T07:55:00;96985.59;;;-0.25;83.20
46392;BME280;32098;49.448;7.904;2024-01-15T07:57:28;96981.19;;;-0.24;82.99
46392;BME280;32098;49.448;7.904;2024-01-15T07:59:54;96980.88;;;-0.21;83.24
46392;BME280;32098;49.448;7.904;2024-01-15T08:02:21;96976.63;;;-0.22;83.34
46392;BME280;32098;49.448;7.904;2024-01-15T08:04:48;96980.03;;;-0.22;83.85
46392;BME280;32098;49.448;7.904;2024-01-15T08:07:15;96978.88;;;-0.19;83.76
46392;BME280;32098;49.448;7.904;2024-01-15T08:09:42;96971.25;;;-0.21;83.20
46392;BME280;32098;49.448;7.904;2024-01-15T08:12:09;96975.25;;;-0.10;83.11
46392;BME280;32098;49.448;7.904;2024-01-15T08:14:36;96978.19;;;-0.13;83.21
46392;BME280;32098;49.448;7.904;2024-01-15T08:17:03;96979.66;;;-0.11;83.47
46392;BME280;32098;49.448;7.904;2024-01-15T08:19:30;96981.25;;;-0.10;83.47
46392;BME280;32098;49.448;7.904;2024-01-15T08:21:57;96994.84;;;-0.14;83.40
46392;BME280;32098;49.448;7.904;2024-01-15T08:24:23;96982.94;;;-0.17;83.60
46392;BME280;32098;49.448;7.904;2024-01-15T08:26:50;96981.44;;;-0.11;82.77
46392;BME280;32098;49.448;7.904;2024-01-15T08:29:16;96989.28;;;-0.11;83.72
46392;BME280;32098;49.448;7.904;2024-01-15T08:31:45;96982.72;;;-0.07;83.54
46392;BME280;32098;49.448;7.904;2024-01-15T08:34:12;96975.28;;;-0.18;83.03
46392;BME280;32098;49.448;7.904;2024-01-15T08:36:39;96972.25;;;-0.07;83.33
46392;BME280;32098;49.448;7.904;2024-01-15T08:39:07;96967.41;;;-0.10;83.67
46392;BME280;32098;49.448;7.904;2024-01-15T08:41:35;96980.38;;;-0.02;84.13
46392;BME280;32098;49.448;7.904;2024-01-15T08:44:02;96983.66;;;0.00;83.57
46392;BME280;32098;49.448;7.904;2024-01-15T08:46:29;96979.69;;;0.04;84.15
46392;BME280;32098;49.448;7.904;2024-01-15T08:48:56;96972.84;;;0.03;83.70
46392;BME280;32098;49.448;7.904;2024-01-15T08:51:22;96967.50;;;-0.04;83.21
46392;BME280;32098;49.448;7.904;2024-01-15T08:53:49;96980.97;;;0.08;83.89
46392;BME280;32098;49.448;7.904;2024-01-15T08:56:16;96979.34;;;0.07;83.96
46392;BME280;32098;49.448;7.904;2024-01-15T08:58:43;96978.06;;;0.03;83.95
46392;BME280;32098;49.448;7.904;2024-01-15T09:01:11;96977.53;;;0.08;84.16
46392;BME280;32098;49.448;7.904;2024-01-15T09:03:37;96984.09;;;0.04;83.96
46392;BME280;32098;49.448;7.904;2024-01-15T09:06:04;96976.75;;;0.07;84.33
46392;BME280;32098;49.448;7.904;2024-01-15T09:08:31;96978.53;;;0.07;84.27
46392;BME280;32098;49.448;7.904;2024-01-15T09:10:57;96984.19;;;0.10;84.94
46392;BME280;32098;49.448;7.904;2024-01-15T09:13:25;96984.38;;;0.09;85.26
46392;BME280;32098;49.448;7.904;2024-01-15T09:15:51;96975.22;;;0.13;85.00
46392;BME280;32098;49.448;7.904;2024-01-15T09:18:19;96979.53;;;0.20;85.06
46392;BME280;32098;49.448;7.904;2024-01-15T09:20:46;96969.09;;;0.20;85.38
46392;BME280;32098;49.448;7.904;2024-01-15T09:23:13;96956.22;;;0.19;85.28
46392;BME280;32098;49.448;7.904;2024-01-15T09:25:40;96960.09;;;0.23;85.35
46392;BME280;32098;49.448;7.904;2024-01-15T09:28:06;96961.81;;;0.30;85.06
46392;BME280;32098;49.448;7.904;2024-01-15T09:30:34;96961.19;;;0.28;84.85
46392;BME280;32098;49.448;7.904;2024-01-15T09:33:01;96959.94;;;0.24;85.21
46392;BME280;32098;49.448;7.904;2024-01-15T09:35:28;96960.22;;;0.29;85.58
46392;BME280;32098;49.448;7.904;2024-01-15T09:37:54;96960.84;;;0.31;85.53
46392;BME280;32098;49.448;7.904;2024-01-15T09:40:21;96956.31;;;0.25;85.05
46392;BME280;32098;49.448;7.904;2024-01-15T09:42:49;96954.88;;;0.23;85.34
46392;BME280;32098;49.448;7.904;2024-01-15T09:45:17;96956.50;;;0.24;85.63
46392;BME280;32098;49.448;7.904;2024-01-15T09:47:43;96943.88;;;0.13;85.82
46392;BME280;32098;49.448;7.904;2024-01-15T09:50:13;96960.91;;;0.23;85.40
46392;BME280;32098;49.448;7.904;2024-01-15T09:52:43;96957.97;;;0.26;85.47
46392;BME280;32098;49.448;7.904;2024-01-15T09:55:10;96955.63;;;0.31;85.88
46392;BME280;32098;49.448;7.904;2024-01-15T09:57:39;96952.38;;;0.29;85.71
46392;BME280;32098;49.448;7.904;2024-01-15T10:00:07;96958.16;;;0.39;84.80
46392;BME280;32098;49.448;7.904;2024-01-15T10:02:35;96950.97;;;0.41;84.88
46392;BME280;32098;49.448;7.904;2024-01-15T10:05:04;96938.25;;;0.38;85.03
46392;BME280;32098;49.448;7.904;2024-01-15T10:07:34;96946.81;;;0.47;84.98
46392;BME280;32098;49.448;7.904;2024-01-15T10:10:01;96923.72;;;0.36;84.89
46392;BME280;32098;49.448;7.904;2024-01-15T10:12:30;96948.91;;;0.51;84.66
46392;BME280;32098;49.448;7.904;2024-01-15T10:14:58;96942.31;;;0.55;85.08
46392;BME280;32098;49.448;7.904;2024-01-15T10:17:25;96939.53;;;0.57;84.56
46392;BME280;32098;49.448;7.904;2024-01-15T10:19:54;96941.13;;;0.58;84.72
46392;BME280;32098;49.448;7.904;2024-01-15T10:22:21;96939.34;;;0.58;84.56
46392;BME280;32098;49.448;7.904;2024-01-15T10:24:48;96932.13;;;0.60;84.55
46392;BME280;32098;49.448;7.904;2024-01-15T10:27:15;96927.91;;;0.59;84.49
46392;BME280;32098;49.448;7.904;2024-01-15T10:29:43;96930.44;;;0.68;84.76
46392;BME280;32098;49.448;7.904;2024-01-15T10:32:11;96931.06;;;0.70;84.85
46392;BME280;32098;49.448;7.904;2024-01-15T10:34:39;96921.16;;;0.65;84.69
46392;BME280;32098;49.448;7.904;2024-01-15T10:37:10;96922.97;;;0.64;84.28
46392;BME280;32098;49.448;7.904;2024-01-15T10:39:36;96927.56;;;0.62;85.01
46392;BME280;32098;49.448;7.904;2024-01-15T10:42:05;96913.94;;;0.67;85.12
46392;BME280;32098;49.448;7.904;2024-01-15T10:44:33;96914.75;;;0.68;85.51
46392;BME280;32098;49.448;7.904;2024-01-15T10:47:01;96920.88;;;0.75;85.05
46392;BME280;32098;49.448;7.904;2024-01-15T10:49:28;96909.69;;;0.81;85.52
46392;BME280;32098;49.448;7.904;2024-01-15T10:52:00;96911.31;;;0.82;84.63
46392;BME280;32098;49.448;7.904;2024-01-15T10:54:28;96894.28;;;0.71;85.12
46392;BME280;32098;49.448;7.904;2024-01-15T10:56:56;96912.00;;;0.90;84.71
46392;BME280;32098;49.448;7.904;2024-01-15T10:59:23;96909.84;;;0.94;84.29
46392;BME280;32098;49.448;7.904;2024-01-15T11:01:52;96902.72;;;0.88;83.76
46392;BME280;32098;49.448;7.904;2024-01-15T11:04:23;96899.75;;;0.91;84.12
46392;BME280;32098;49.448;7.904;2024-01-15T11:06:53;96898.22;;;0.96;84.47
46392;BME280;32098;49.448;7.904;2024-01-15T11:09:23;96895.81;;;0.95;84.35
46392;BME280;32098;49.448;7.904;2024-01-15T11:12:06;96895.41;;;0.98;84.20
46392;BME280;32098;49.448;7.904;2024-01-15T11:14:41;96902.34;;;1.05;84.33
46392;BME280;32098;49.448;7.904;2024-01-15T11:17:13;96904.97;;;1.05;83.81
46392;BME280;32098;49.448;7.904;2024-01-15T11:19:44;96904.78;;;1.07;83.98
46392;BME280;32098;49.448;7.904;2024-01-15T11:25:03;96911.25;;;1.11;84.00
46392;BME280;32098;49.448;7.904;2024-01-15T11:27:45;96911.72;;;1.14;83.61
46392;BME280;32098;49.448;7.904;2024-01-15T11:30:19;96909.47;;;1.11;83.55
46392;BME280;32098;49.448;7.904;2024-01-15T11:32:46;96908.28;;;1.14;83.87
46392;BME280;32098;49.448;7.904;2024-01-15T11:35:14;96910.91;;;1.14;83.93
46392;BME280;32098;49.448;7.904;2024-01-15T11:43:02;96909.72;;;1.16;83.79
46392;BME280;32098;49.448;7.904;2024-01-15T11:45:30;96911.16;;;1.19;83.85
46392;BME280;32098;49.448;7.904;2024-01-15T11:48:10;96874.75;;;1.03;83.60
46392;BME280;32098;49.448;7.904;2024-01-15T11:50:43;96918.91;;;1.27;84.07
46392;BME280;32098;49.448;7.904;2024-01-15T11:53:21;96921.16;;;1.30;84.35
46392;BME280;32098;49.448;7.904;2024-01-15T11:55:57;96930.00;;;1.29;83.82
46392;BME280;32098;49.448;7.904;2024-01-15T11:58:24;96925.59;;;1.29;83.58
46392;BME280;32098;49.448;7.904;2024-01-15T12:00:52;96934.06;;;1.32;82.88
46392;BME280;32098;49.448;7.904;2024-01-15T12:03:24;96938.09;;;1.34;82.96
46392;BME280;32098;49.448;7.904;2024-01-15T12:05:54;96938.47;;;1.31;83.38
46392;BME280;32098;49.448;7.904;2024-01-15T12:08:24;96936.94;;;1.37;83.18
46392;BME280;32098;49.448;7.904;2024-01-15T12:10:51;96937.75;;;1.37;83.35
46392;BME280;32098;49.448;7.904;2024-01-15T12:13:19;96928.53;;;1.41;82.37
46392;BME280;32098;49.448;7.904;2024-01-15T12:15:48;96934.13;;;1.38;82.17
46392;BME280;32098;49.448;7.904;2024-01-15T12:18:17;96924.41;;;1.32;82.35
46392;BME280;32098;49.448;7.904;2024-01-15T12:20:45;96931.25;;;1.33;82.71
46392;BME280;32098;49.448;7.904;2024-01-15T12:23:15;96926.75;;;1.27;82.49
46392;BME280;32098;49.448;7.904;2024-01-15T12:25:44;96939.22;;;1.25;82.76
46392;BME280;32098;49.448;7.904;2024-01-15T12:28:11;96927.13;;;1.24;82.12
46392;BME280;32098;49.448;7.904;2024-01-15T12:30:38;96930.63;;;1.31;82.53
46392;BME280;32098;49.448;7.904;2024-01-15T12:33:06;96940.53;;;1.36;83.24
46392;BME280;32098;49.448;7.904;2024-01-15T12:35:35;96940.53;;;1.36;83.21
46392;BME280;32098;49.448;7.904;2024-01-15T12:38:03;96940.94;;;1.33;82.75
46392;BME280;32098;49.448;7.904;2024-01-15T12:40:31;96947.75;;;1.34;83.03
46392;BME280;32098;49.448;7.904;2024-01-15T12:43:00;96958.69;;;1.37;83.12
46392;BME280;32098;49.448;7.904;2024-01-15T12:45:27;96951.25;;;1.41;83.09
46392;BME280;32098;49.448;7.904;2024-01-15T12:47:54;96953.34;;;1.45;83.26
46392;BME280;32098;49.448;7.904;2024-01-15T12:50:24;96949.72;;;1.46;83.05
46392;BME280;32098;49.448;7.904;2024-01-15T12:52:50;96958.38;;;1.47;82.90
46392;BME280;32098;49.448;7.904;2024-01-15T12:55:17;96956.75;;;1.46;82.58
46392;BME280;32098;49.448;7.904;2024-01-15T12:57:44;96955.97;;;1.45;82.94
46392;BME280;32098;49.448;7.904;2024-01-15T13:00:13;96955.25;;;1.37;82.93
46392;BME280;32098;49.448;7.904;2024-01-15T13:02:43;96960.28;;;1.38;82.64
46392;BME280;32098;49.448;7.904;2024-01-15T13:05:11;96950.00;;;1.37;83.60
46392;BME280;32098;49.448;7.904;2024-01-15T13:07:40;96948.13;;;1.30;83.15
46392;BME280;32098;49.448;7.904;2024-01-15T13:10:07;96949.56;;;1.33;83.46
46392;BME280;32098;49.448;7.904;2024-01-15T13:12:37;96946.22;;;1.39;83.29
46392;BME280;32098;49.448;7.904;2024-01-15T13:15:04;96950.22;;;1.35;83.44